Terminal Aerodrome Forecast
Issued by NWS North Platte, NE

Home | Current Version | Previous Version | Graphics & Text | Print | Product List | Glossary On
Versions: 1 2 3 4 5 6 7 8 9 10 11 12 13 14 15 16 17 18 19 20 21
000
FTUS43 KLBF 210800 AAA
TAFVTN
TAF AMD
KVTN 210855Z 2109/2206 09004KT 3/4SM BR VV003
      TEMPO 2109/2113 2SM BR SCT008
     FM211300 24006KT 5SM BR BKN150
     FM211600 24011G18KT P6SM BKN150
     FM220100 26006KT P6SM FEW150=

USA.gov is the U.S. government's official web portal to all federal, state and local government web resources and services.